Time;durP1;ratioP1;P1;durP2;ratioP2;P2;SDS_P1;SDS_P2;PMS_P1;PMS_P2;Temp;Humidity;BMP_temperature;BMP_pressure;BME280_temperature;BME280_humidity;BME280_pressure;Samples;Min_cycle;Max_cycle;Signal;HPM_P1;HPM_P2
2022/04/17 00:00:25;;;;;;;0.20;0.20;;;;;;;;;;5035404;28;20041;-70
2022/04/17 00:02:51;;;;;;;0.17;0.17;;;;;;;;;;5035182;28;20091;-70
2022/04/17 00:05:18;;;;;;;0.10;0.10;;;;;;;;;;5017658;28;20048;-70
2022/04/17 00:07:44;;;;;;;0.20;0.20;;;;;;;;;;5034904;28;20048;-70
2022/04/17 00:10:10;;;;;;;0.10;0.10;;;;;;;;;;5035239;28;20512;-70
2022/04/17 00:12:37;;;;;;;0.20;0.20;;;;;;;;;;5035037;28;20122;-70
2022/04/17 00:15:03;;;;;;;0.20;0.20;;;;;;;;;;5034982;28;20048;-70
2022/04/17 00:17:30;;;;;;;0.47;0.40;;;;;;;;;;5035537;28;20141;-70
2022/04/17 00:19:56;;;;;;;0.10;0.10;;;;;;;;;;5034904;28;20061;-70
2022/04/17 00:22:25;;;;;;;0.20;0.20;;;;;;;;;;5017392;28;20505;-70
2022/04/17 00:24:52;;;;;;;0.20;0.20;;;;;;;;;;5034810;28;20044;-70
2022/04/17 00:27:18;;;;;;;0.10;0.10;;;;;;;;;;5034961;28;20061;-70
2022/04/17 00:29:44;;;;;;;0.10;0.10;;;;;;;;;;5035065;28;20124;-70
2022/04/17 00:32:11;;;;;;;0.10;0.10;;;;;;;;;;5034928;28;20045;-70
2022/04/17 00:34:37;;;;;;;0.32;0.32;;;;;;;;;;5035138;28;20041;-70
2022/04/17 00:37:04;;;;;;;0.13;0.13;;;;;;;;;;5034927;28;20045;-70
2022/04/17 00:39:31;;;;;;;0.10;0.10;;;;;;;;;;5035213;28;20065;-70
2022/04/17 00:41:58;;;;;;;6.13;0.52;;;;;;;;;;5034944;28;20079;-70
2022/04/17 00:44:25;;;;;;;3.40;1.08;;;;;;;;;;5034593;28;20041;-70
2022/04/17 00:46:51;;;;;;;0.10;0.10;;;;;;;;;;5035039;28;20403;-70
2022/04/17 00:49:17;;;;;;;0.20;0.20;;;;;;;;;;5035075;28;20372;-70
2022/04/17 00:51:43;;;;;;;0.15;0.15;;;;;;;;;;5034395;28;20045;-70
2022/04/17 00:54:12;;;;;;;0.10;0.10;;;;;;;;;;5034702;28;20056;-70
2022/04/17 00:56:38;;;;;;;0.10;0.10;;;;;;;;;;5017375;28;20088;-70
2022/04/17 00:59:09;;;;;;;0.43;0.30;;;;;;;;;;5034701;28;20064;-70
2022/04/17 01:01:36;;;;;;;0.10;0.10;;;;;;;;;;5034710;28;20049;-70
2022/04/17 01:04:02;;;;;;;0.30;0.30;;;;;;;;;;5034616;28;20045;-70
2022/04/17 01:06:28;;;;;;;0.17;0.17;;;;;;;;;;5034629;28;20171;-70
2022/04/17 01:08:55;;;;;;;0.10;0.10;;;;;;;;;;5034623;28;20067;-70
2022/04/17 01:11:21;;;;;;;0.32;0.32;;;;;;;;;;5034345;28;20045;-70
2022/04/17 01:13:47;;;;;;;0.17;0.17;;;;;;;;;;5034595;28;20072;-70
2022/04/17 01:16:16;;;;;;;0.20;0.20;;;;;;;;;;5034519;28;20037;-70
2022/04/17 01:19:00;;;;;;;0.20;0.20;;;;;;;;;;5034566;28;20063;-70
2022/04/17 01:21:27;;;;;;;0.10;0.10;;;;;;;;;;5038520;28;20049;-70
2022/04/17 01:26:58;;;;;;;0.30;0.30;;;;;;;;;;5038195;28;20044;-70
2022/04/17 01:29:29;;;;;;;0.55;0.45;;;;;;;;;;4999499;28;20050;-70
2022/04/17 01:31:55;;;;;;;0.10;0.10;;;;;;;;;;4998209;28;20038;-70
2022/04/17 01:34:22;;;;;;;0.30;0.30;;;;;;;;;;4998869;28;20049;-70
2022/04/17 01:36:49;;;;;;;0.20;0.20;;;;;;;;;;4999316;28;20038;-70
2022/04/17 01:39:15;;;;;;;0.20;0.20;;;;;;;;;;4998692;28;20041;-70
2022/04/17 01:41:42;;;;;;;0.10;0.10;;;;;;;;;;4998609;28;20125;-70
2022/04/17 01:44:08;;;;;;;0.10;0.10;;;;;;;;;;4998393;28;20400;-70
2022/04/17 01:46:35;;;;;;;0.20;0.20;;;;;;;;;;4998397;28;20385;-70
2022/04/17 01:49:02;;;;;;;0.28;0.20;;;;;;;;;;4998820;28;20129;-70
2022/04/17 01:51:28;;;;;;;0.10;0.10;;;;;;;;;;4999009;28;20046;-70
2022/04/17 01:53:54;;;;;;;0.10;0.10;;;;;;;;;;4998427;28;20038;-70
2022/04/17 01:56:20;;;;;;;0.10;0.10;;;;;;;;;;4998043;28;20042;-70
2022/04/17 01:58:46;;;;;;;0.20;0.20;;;;;;;;;;4998716;28;20057;-70
2022/04/17 02:01:12;;;;;;;0.10;0.10;;;;;;;;;;4998127;28;20046;-70
2022/04/17 02:03:39;;;;;;;0.10;0.10;;;;;;;;;;4998405;28;20034;-70
2022/04/17 02:06:05;;;;;;;0.10;0.10;;;;;;;;;;4998247;28;20065;-70
2022/04/17 02:08:31;;;;;;;0.20;0.20;;;;;;;;;;4998349;28;20092;-70
2022/04/17 02:10:57;;;;;;;0.10;0.10;;;;;;;;;;4998628;28;20121;-70
2022/04/17 02:13:23;;;;;;;0.20;0.20;;;;;;;;;;4998081;28;20054;-70
2022/04/17 02:15:53;;;;;;;0.20;0.20;;;;;;;;;;4997984;28;20563;-70
2022/04/17 02:18:20;;;;;;;0.10;0.10;;;;;;;;;;4997968;28;20038;-70
2022/04/17 02:20:47;;;;;;;0.30;0.30;;;;;;;;;;4997966;28;20037;-70
2022/04/17 02:23:13;;;;;;;0.20;0.20;;;;;;;;;;4997991;28;20138;-70
2022/04/17 02:25:40;;;;;;;0.22;0.22;;;;;;;;;;4997687;28;20065;-70
2022/04/17 02:28:06;;;;;;;0.15;0.15;;;;;;;;;;5020217;28;20057;-70
2022/04/17 02:30:32;;;;;;;1.45;0.73;;;;;;;;;;5036011;28;20504;-70
2022/04/17 02:32:58;;;;;;;0.30;0.30;;;;;;;;;;5036477;28;20098;-70
2022/04/17 02:35:24;;;;;;;0.20;0.20;;;;;;;;;;5036588;28;20041;-70
2022/04/17 02:37:51;;;;;;;0.15;0.15;;;;;;;;;;5037044;28;20049;-70
2022/04/17 02:40:17;;;;;;;0.20;0.20;;;;;;;;;;5036772;28;20087;-70
2022/04/17 02:42:43;;;;;;;0.75;0.47;;;;;;;;;;5036335;28;20080;-70
2022/04/17 02:45:10;;;;;;;0.32;0.32;;;;;;;;;;5036328;28;20061;-70
2022/04/17 02:47:51;;;;;;;0.20;0.20;;;;;;;;;;5036511;28;20052;-70
2022/04/17 02:50:18;;;;;;;0.30;0.25;;;;;;;;;;5036004;28;20037;-70
2022/04/17 02:52:45;;;;;;;0.10;0.10;;;;;;;;;;5036581;28;20103;-70
2022/04/17 02:55:11;;;;;;;0.20;0.20;;;;;;;;;;5036368;28;20038;-70
2022/04/17 02:57:38;;;;;;;0.17;0.17;;;;;;;;;;5036372;28;20037;-70
2022/04/17 03:00:06;;;;;;;0.10;0.10;;;;;;;;;;5036402;28;20132;-70
2022/04/17 03:08:02;;;;;;;0.10;0.10;;;;;;;;;;5035745;28;20040;-70
2022/04/17 03:10:28;;;;;;;0.22;0.22;;;;;;;;;;5036124;28;20045;-70
2022/04/17 03:12:54;;;;;;;0.10;0.10;;;;;;;;;;5035700;28;20041;-70
2022/04/17 03:15:20;;;;;;;0.10;0.10;;;;;;;;;;5035811;28;20099;-70
2022/04/17 03:17:46;;;;;;;0.10;0.10;;;;;;;;;;5035817;28;20049;-70
2022/04/17 03:20:12;;;;;;;0.13;0.13;;;;;;;;;;5035943;28;20088;-70
2022/04/17 03:22:42;;;;;;;0.10;0.10;;;;;;;;;;5035820;28;20033;-70
2022/04/17 03:25:09;;;;;;;0.20;0.20;;;;;;;;;;5036014;28;20107;-70
2022/04/17 03:27:35;;;;;;;0.15;0.15;;;;;;;;;;5035473;28;20061;-70
2022/04/17 03:30:01;;;;;;;0.10;0.10;;;;;;;;;;5036316;28;20041;-70
2022/04/17 03:32:27;;;;;;;2.45;0.35;;;;;;;;;;5035662;28;20045;-70
2022/04/17 03:34:54;;;;;;;0.10;0.10;;;;;;;;;;5035422;28;20041;-70
2022/04/17 03:37:20;;;;;;;0.10;0.10;;;;;;;;;;5035763;28;20127;-70
2022/04/17 03:39:48;;;;;;;0.10;0.10;;;;;;;;;;5035312;28;20041;-70
2022/04/17 03:42:15;;;;;;;0.35;0.35;;;;;;;;;;5034952;28;20414;-70
2022/04/17 03:44:41;;;;;;;0.63;0.52;;;;;;;;;;5035413;28;20088;-70
2022/04/17 03:47:08;;;;;;;0.10;0.10;;;;;;;;;;5035918;28;20045;-70
2022/04/17 03:49:34;;;;;;;0.22;0.22;;;;;;;;;;5035143;28;20113;-70
2022/04/17 03:52:00;;;;;;;0.00;0.00;;;;;;;;;;5035564;28;20098;-70
2022/04/17 03:54:26;;;;;;;0.20;0.20;;;;;;;;;;5035337;28;20080;-70
2022/04/17 03:56:53;;;;;;;0.38;0.38;;;;;;;;;;5035318;28;20061;-70
2022/04/17 03:59:19;;;;;;;0.17;0.17;;;;;;;;;;5035251;28;20043;-70
2022/04/17 04:01:48;;;;;;;0.10;0.10;;;;;;;;;;5017432;28;20041;-70
2022/04/17 04:04:15;;;;;;;0.45;0.30;;;;;;;;;;5035072;28;20065;-70
2022/04/17 04:06:44;;;;;;;0.10;0.10;;;;;;;;;;5036032;28;20041;-70
2022/04/17 04:09:10;;;;;;;0.13;0.13;;;;;;;;;;5034861;28;20115;-70
2022/04/17 04:11:37;;;;;;;0.10;0.10;;;;;;;;;;5034506;28;20049;-70
2022/04/17 04:14:05;;;;;;;0.17;0.17;;;;;;;;;;5035594;28;20048;-70
2022/04/17 04:16:31;;;;;;;0.10;0.10;;;;;;;;;;5034975;28;20045;-70
2022/04/17 04:18:57;;;;;;;0.20;0.20;;;;;;;;;;5034670;28;20044;-70
2022/04/17 04:21:24;;;;;;;0.17;0.17;;;;;;;;;;5034665;28;20049;-70
2022/04/17 04:23:50;;;;;;;0.10;0.10;;;;;;;;;;5034880;28;20041;-70
2022/04/17 04:26:16;;;;;;;0.32;0.32;;;;;;;;;;5034958;28;20045;-70
2022/04/17 04:28:42;;;;;;;0.10;0.10;;;;;;;;;;5035014;28;20049;-70
2022/04/17 04:31:12;;;;;;;0.20;0.20;;;;;;;;;;5034992;28;20048;-70
2022/04/17 04:33:39;;;;;;;0.10;0.10;;;;;;;;;;5034997;28;20569;-70
2022/04/17 04:36:06;;;;;;;0.10;0.10;;;;;;;;;;5034975;28;20037;-70
2022/04/17 04:38:33;;;;;;;0.20;0.20;;;;;;;;;;5035013;28;20037;-70
2022/04/17 04:40:59;;;;;;;0.10;0.10;;;;;;;;;;5034941;28;20045;-70
2022/04/17 04:43:26;;;;;;;0.17;0.17;;;;;;;;;;5034500;28;20061;-70
2022/04/17 04:46:07;;;;;;;0.17;0.17;;;;;;;;;;5034843;28;20046;-70
2022/04/17 04:51:25;;;;;;;0.52;0.52;;;;;;;;;;5034202;28;20575;-70
2022/04/17 04:53:52;;;;;;;0.68;0.68;;;;;;;;;;5034171;28;20041;-70
2022/04/17 04:56:19;;;;;;;0.10;0.10;;;;;;;;;;5034206;28;20037;-70
2022/04/17 04:58:45;;;;;;;0.10;0.10;;;;;;;;;;5035308;28;20041;-70
2022/04/17 05:01:12;;;;;;;0.17;0.17;;;;;;;;;;5034940;28;20423;-70
2022/04/17 05:03:38;;;;;;;0.22;0.22;;;;;;;;;;5034376;28;20500;-70
2022/04/17 05:06:05;;;;;;;0.10;0.10;;;;;;;;;;5034462;28;20087;-70
2022/04/17 05:08:31;;;;;;;0.13;0.13;;;;;;;;;;5016673;28;20500;-70
2022/04/17 05:10:57;;;;;;;0.20;0.20;;;;;;;;;;5034242;28;20053;-70
2022/04/17 05:13:23;;;;;;;0.05;0.05;;;;;;;;;;5034361;28;20038;-70
2022/04/17 05:15:49;;;;;;;0.20;0.20;;;;;;;;;;5034278;28;20072;-70
2022/04/17 05:18:16;;;;;;;0.65;0.65;;;;;;;;;;5034689;28;20104;-70
2022/04/17 05:20:42;;;;;;;0.10;0.10;;;;;;;;;;5034499;28;20041;-70
2022/04/17 05:23:19;;;;;;;0.40;0.40;;;;;;;;;;5034306;28;20501;-70
2022/04/17 05:25:48;;;;;;;0.10;0.10;;;;;;;;;;5034153;28;20041;-70
2022/04/17 05:28:14;;;;;;;0.10;0.10;;;;;;;;;;5013344;28;20464;-70
2022/04/17 05:30:41;;;;;;;0.10;0.10;;;;;;;;;;5014831;28;20048;-70
2022/04/17 05:33:07;;;;;;;0.10;0.10;;;;;;;;;;5014466;28;20049;-70
2022/04/17 05:35:34;;;;;;;0.52;0.52;;;;;;;;;;5014301;28;20033;-70
2022/04/17 05:38:00;;;;;;;0.10;0.10;;;;;;;;;;5014625;28;20050;-70
2022/04/17 05:40:27;;;;;;;0.10;0.10;;;;;;;;;;5014303;28;20065;-70
2022/04/17 05:42:53;;;;;;;0.10;0.10;;;;;;;;;;5014127;28;20485;-70
2022/04/17 05:45:19;;;;;;;0.10;0.10;;;;;;;;;;5014575;28;20038;-70
2022/04/17 05:47:46;;;;;;;0.10;0.10;;;;;;;;;;5014579;28;20049;-70
2022/04/17 05:50:12;;;;;;;0.10;0.10;;;;;;;;;;5014270;28;20038;-70
2022/04/17 05:52:38;;;;;;;0.40;0.40;;;;;;;;;;5014136;28;20052;-70
2022/04/17 05:55:04;;;;;;;0.47;0.40;;;;;;;;;;5014507;28;20037;-70
2022/04/17 05:57:30;;;;;;;0.10;0.10;;;;;;;;;;5012343;28;20126;-70
2022/04/17 05:59:56;;;;;;;1.20;1.10;;;;;;;;;;5012535;28;20042;-70
2022/04/17 06:02:23;;;;;;;0.40;0.40;;;;;;;;;;5012889;28;20050;-70
2022/04/17 06:04:49;;;;;;;0.22;0.22;;;;;;;;;;5012756;28;20041;-70
2022/04/17 06:07:24;;;;;;;0.10;0.10;;;;;;;;;;5014896;28;20050;-70
2022/04/17 06:09:50;;;;;;;0.15;0.15;;;;;;;;;;5016345;28;20044;-70
2022/04/17 06:12:17;;;;;;;0.10;0.10;;;;;;;;;;5015940;28;20507;-70
2022/04/17 06:14:44;;;;;;;0.10;0.10;;;;;;;;;;5016127;28;20034;-70
2022/04/17 06:17:10;;;;;;;0.10;0.10;;;;;;;;;;5015922;28;20049;-70
2022/04/17 06:19:36;;;;;;;0.15;0.15;;;;;;;;;;5016034;28;20108;-70
2022/04/17 06:22:03;;;;;;;0.25;0.25;;;;;;;;;;5016063;28;20049;-70
2022/04/17 06:24:29;;;;;;;0.15;0.15;;;;;;;;;;5015951;28;20100;-70
2022/04/17 06:26:55;;;;;;;0.20;0.20;;;;;;;;;;5017306;28;20076;-70
2022/04/17 06:29:21;;;;;;;0.20;0.20;;;;;;;;;;5035294;28;20061;-70
2022/04/17 06:31:47;;;;;;;0.20;0.20;;;;;;;;;;5035012;28;20043;-70
2022/04/17 06:34:15;;;;;;;0.17;0.17;;;;;;;;;;5035688;28;20074;-69
2022/04/17 06:36:41;;;;;;;0.32;0.32;;;;;;;;;;5036633;28;20041;-70
2022/04/17 06:39:07;;;;;;;0.63;0.63;;;;;;;;;;5036348;28;20103;-73
2022/04/17 06:41:33;;;;;;;0.10;0.10;;;;;;;;;;5036441;28;20179;-70
2022/04/17 06:44:00;;;;;;;0.20;0.20;;;;;;;;;;5036424;28;20041;-69
2022/04/17 06:46:26;;;;;;;0.20;0.20;;;;;;;;;;5036393;28;20041;-71
2022/04/17 06:48:52;;;;;;;0.10;0.10;;;;;;;;;;5035636;28;20045;-72
2022/04/17 06:51:22;;;;;;;0.30;0.30;;;;;;;;;;5036432;28;20046;-72
2022/04/17 06:53:48;;;;;;;0.22;0.22;;;;;;;;;;5037221;28;20041;-72
2022/04/17 06:56:18;;;;;;;0.28;0.28;;;;;;;;;;5036329;28;20037;-72
2022/04/17 06:58:44;;;;;;;0.13;0.13;;;;;;;;;;5036340;28;20052;-72
2022/04/17 07:01:11;;;;;;;0.10;0.10;;;;;;;;;;5036257;28;20568;-72
2022/04/17 07:03:37;;;;;;;0.20;0.20;;;;;;;;;;5036336;28;20048;-72
2022/04/17 07:06:03;;;;;;;0.25;0.25;;;;;;;;;;5035999;28;20033;-72
2022/04/17 07:08:29;;;;;;;0.75;0.32;;;;;;;;;;5035831;28;20042;-72
2022/04/17 07:10:55;;;;;;;0.10;0.10;;;;;;;;;;5037197;28;20043;-71
2022/04/17 07:13:23;;;;;;;0.10;0.10;;;;;;;;;;5044117;28;20133;-72
2022/04/17 07:15:50;;;;;;;0.10;0.10;;;;;;;;;;5043709;28;20037;-70
2022/04/17 07:18:16;;;;;;;0.10;0.10;;;;;;;;;;5049113;28;20042;-71
2022/04/17 07:20:43;;;;;;;0.20;0.20;;;;;;;;;;5035684;28;20045;-71
2022/04/17 07:23:09;;;;;;;0.30;0.30;;;;;;;;;;5036450;28;20076;-71
2022/04/17 07:25:36;;;;;;;0.15;0.15;;;;;;;;;;5036775;28;20041;-71
2022/04/17 07:28:02;;;;;;;0.22;0.22;;;;;;;;;;5035211;28;20057;-72
2022/04/17 07:30:30;;;;;;;0.10;0.10;;;;;;;;;;5039940;28;20037;-71
2022/04/17 07:32:57;;;;;;;0.63;0.40;;;;;;;;;;5047389;28;20048;-72
2022/04/17 07:35:24;;;;;;;0.10;0.10;;;;;;;;;;5035204;28;20042;-72
2022/04/17 07:37:54;;;;;;;0.10;0.10;;;;;;;;;;5032262;28;20123;-72
2022/04/17 07:40:23;;;;;;;0.40;0.40;;;;;;;;;;5055212;28;20065;-72
2022/04/17 07:42:50;;;;;;;0.10;0.10;;;;;;;;;;5035472;28;20407;-72
2022/04/17 07:45:17;;;;;;;0.10;0.10;;;;;;;;;;5055534;28;20033;-72
2022/04/17 07:47:43;;;;;;;0.25;0.25;;;;;;;;;;5047972;28;20054;-71
2022/04/17 07:50:14;;;;;;;2.92;0.32;;;;;;;;;;5034744;28;20128;-73
2022/04/17 07:52:41;;;;;;;0.10;0.10;;;;;;;;;;5032883;28;20037;-71
2022/04/17 07:55:09;;;;;;;0.10;0.10;;;;;;;;;;5034457;28;20120;-72
2022/04/17 08:00:21;;;;;;;0.47;0.38;;;;;;;;;;5032469;28;20103;-72
2022/04/17 08:02:53;;;;;;;2.17;0.20;;;;;;;;;;5035478;28;20051;-72
2022/04/17 08:05:23;;;;;;;0.10;0.10;;;;;;;;;;5035191;28;20045;-69
2022/04/17 08:07:50;;;;;;;0.20;0.20;;;;;;;;;;5040331;28;20151;-70
2022/04/17 08:10:16;;;;;;;0.10;0.10;;;;;;;;;;5054941;28;20065;-71
2022/04/17 08:12:42;;;;;;;0.20;0.20;;;;;;;;;;5043942;28;20072;-72
2022/04/17 08:15:08;;;;;;;0.20;0.20;;;;;;;;;;5034240;28;20037;-72
2022/04/17 08:17:35;;;;;;;0.10;0.10;;;;;;;;;;5033815;28;20439;-72
2022/04/17 08:20:01;;;;;;;0.10;0.10;;;;;;;;;;5016396;28;20399;-72
2022/04/17 08:22:27;;;;;;;0.10;0.10;;;;;;;;;;5034043;28;20055;-72
2022/04/17 08:24:53;;;;;;;0.22;0.22;;;;;;;;;;5033855;28;20132;-72
2022/04/17 08:27:19;;;;;;;0.15;0.15;;;;;;;;;;5033552;28;20393;-72
2022/04/17 08:29:45;;;;;;;0.10;0.10;;;;;;;;;;5033148;28;20038;-72
2022/04/17 08:32:12;;;;;;;0.52;0.52;;;;;;;;;;5033813;28;20041;-71
2022/04/17 08:34:38;;;;;;;0.60;0.20;;;;;;;;;;5034252;28;20044;-71
2022/04/17 08:37:05;;;;;;;0.40;0.28;;;;;;;;;;5034033;28;20041;-71
2022/04/17 08:39:32;;;;;;;0.22;0.22;;;;;;;;;;5034617;28;20063;-72
2022/04/17 08:42:00;;;;;;;2.30;0.85;;;;;;;;;;5034748;28;20515;-72
2022/04/17 08:44:27;;;;;;;0.40;0.40;;;;;;;;;;5034605;28;20033;-72
2022/04/17 08:46:54;;;;;;;0.38;0.38;;;;;;;;;;5016471;28;20053;-72
2022/04/17 08:49:22;;;;;;;0.20;0.20;;;;;;;;;;5034806;28;20029;-72
2022/04/17 08:51:49;;;;;;;0.25;0.25;;;;;;;;;;5034872;28;20045;-72
2022/04/17 08:54:17;;;;;;;0.22;0.22;;;;;;;;;;5016232;28;20424;-72
2022/04/17 08:56:45;;;;;;;0.30;0.30;;;;;;;;;;5016191;28;20091;-72
2022/04/17 08:59:11;;;;;;;0.20;0.20;;;;;;;;;;5023704;28;20038;-72
2022/04/17 09:01:37;;;;;;;0.10;0.10;;;;;;;;;;5034395;28;20499;-72
2022/04/17 09:04:04;;;;;;;0.10;0.10;;;;;;;;;;5033977;28;20164;-72
2022/04/17 09:06:30;;;;;;;0.15;0.15;;;;;;;;;;5033905;28;20500;-72
2022/04/17 09:09:06;;;;;;;0.15;0.15;;;;;;;;;;5034286;28;20116;-72
2022/04/17 09:11:33;;;;;;;0.65;0.40;;;;;;;;;;5033622;28;20056;-72
2022/04/17 09:14:01;;;;;;;0.32;0.32;;;;;;;;;;5016494;28;20554;-72
2022/04/17 09:16:31;;;;;;;0.20;0.20;;;;;;;;;;5033506;28;20073;-72
2022/04/17 09:18:58;;;;;;;0.20;0.20;;;;;;;;;;5034223;28;20033;-72
2022/04/17 09:21:30;;;;;;;0.32;0.32;;;;;;;;;;5016300;28;20131;-72
2022/04/17 09:24:12;;;;;;;0.10;0.10;;;;;;;;;;5034169;28;20029;-72
2022/04/17 09:26:38;;;;;;;0.20;0.20;;;;;;;;;;5033774;28;20073;-72
2022/04/17 09:29:18;;;;;;;0.15;0.15;;;;;;;;;;5033866;28;20119;-72
2022/04/17 09:31:44;;;;;;;0.10;0.10;;;;;;;;;;5033064;28;20046;-72
2022/04/17 09:34:10;;;;;;;0.10;0.10;;;;;;;;;;5033748;28;20045;-72
2022/04/17 09:36:37;;;;;;;0.45;0.38;;;;;;;;;;5033385;28;20504;-72
2022/04/17 09:39:14;;;;;;;0.10;0.10;;;;;;;;;;5034110;28;20052;-72
2022/04/17 09:41:57;;;;;;;0.25;0.25;;;;;;;;;;5018973;28;20044;-71
2022/04/17 09:44:45;;;;;;;0.55;0.55;;;;;;;;;;5038184;28;20128;-72
2022/04/17 09:47:14;;;;;;;0.10;0.10;;;;;;;;;;5037575;28;20091;-72
2022/04/17 09:49:54;;;;;;;0.10;0.10;;;;;;;;;;5019972;28;20041;-72
2022/04/17 09:52:21;;;;;;;0.20;0.20;;;;;;;;;;5044017;28;20045;-72
2022/04/17 09:54:49;;;;;;;0.10;0.10;;;;;;;;;;5039346;28;20116;-70
2022/04/17 09:57:32;;;;;;;0.10;0.10;;;;;;;;;;5019170;28;20041;-72
2022/04/17 10:00:06;;;;;;;0.10;0.10;;;;;;;;;;5017980;28;20041;-72
2022/04/17 10:02:32;;;;;;;0.10;0.10;;;;;;;;;;5037082;28;20114;-72
2022/04/17 10:04:59;;;;;;;0.20;0.20;;;;;;;;;;5027427;28;20124;-72
2022/04/17 10:07:26;;;;;;;0.10;0.10;;;;;;;;;;5036946;28;20116;-72
2022/04/17 10:09:52;;;;;;;0.20;0.20;;;;;;;;;;5036799;28;20528;-72
2022/04/17 10:12:21;;;;;;;0.30;0.30;;;;;;;;;;5036087;28;20042;-73
2022/04/17 10:15:16;;;;;;;0.22;0.22;;;;;;;;;;5024618;28;20040;-73
2022/04/17 10:17:45;;;;;;;0.10;0.10;;;;;;;;;;4999980;28;20096;-73
2022/04/17 10:20:15;;;;;;;0.30;0.30;;;;;;;;;;5002021;28;20095;-73
2022/04/17 10:22:53;;;;;;;1.23;0.93;;;;;;;;;;5014900;28;20068;-73
2022/04/17 10:25:38;;;;;;;0.30;0.30;;;;;;;;;;5015617;28;20408;-73
2022/04/17 10:28:06;;;;;;;0.40;0.40;;;;;;;;;;5011773;28;20111;-73
2022/04/17 10:30:54;;;;;;;0.10;0.10;;;;;;;;;;5036177;28;20049;-73
2022/04/17 10:33:38;;;;;;;0.20;0.20;;;;;;;;;;5018142;28;20064;-73
2022/04/17 10:36:16;;;;;;;0.10;0.10;;;;;;;;;;5036147;28;20117;-73
2022/04/17 10:38:45;;;;;;;0.10;0.10;;;;;;;;;;5007615;28;20052;-72
2022/04/17 10:41:15;;;;;;;0.10;0.10;;;;;;;;;;5036817;28;20041;-72
2022/04/17 10:43:48;;;;;;;0.10;0.10;;;;;;;;;;5036656;28;20037;-72
2022/04/17 10:46:15;;;;;;;0.28;0.28;;;;;;;;;;5018572;28;20128;-72
2022/04/17 10:48:43;;;;;;;0.20;0.20;;;;;;;;;;5018345;28;20045;-73
2022/04/17 10:51:13;;;;;;;0.10;0.10;;;;;;;;;;5016842;28;20076;-70
2022/04/17 10:53:49;;;;;;;0.10;0.10;;;;;;;;;;5015711;28;20124;-70
2022/04/17 10:56:16;;;;;;;0.10;0.10;;;;;;;;;;5013843;28;20046;-70
2022/04/17 10:58:50;;;;;;;0.20;0.20;;;;;;;;;;5036416;28;20041;-69
2022/04/17 11:01:17;;;;;;;0.10;0.10;;;;;;;;;;5034045;28;20619;-70
2022/04/17 11:03:53;;;;;;;0.20;0.20;;;;;;;;;;5036244;28;20087;-69
2022/04/17 11:06:34;;;;;;;0.20;0.20;;;;;;;;;;5036354;28;20037;-69
2022/04/17 11:09:19;;;;;;;0.20;0.20;;;;;;;;;;5018048;28;20053;-69
2022/04/17 11:11:45;;;;;;;0.20;0.20;;;;;;;;;;5018055;28;20060;-69
2022/04/17 11:14:18;;;;;;;0.30;0.30;;;;;;;;;;5016234;28;20038;-69
2022/04/17 11:16:58;;;;;;;0.10;0.10;;;;;;;;;;5035360;28;20037;-69
2022/04/17 11:19:29;;;;;;;0.20;0.20;;;;;;;;;;5036304;28;20489;-69
2022/04/17 11:22:05;;;;;;;0.28;0.28;;;;;;;;;;5018105;28;20156;-69
2022/04/17 11:24:50;;;;;;;0.45;0.40;;;;;;;;;;5035974;28;20033;-69
2022/04/17 11:27:16;;;;;;;0.30;0.30;;;;;;;;;;5035232;28;20132;-69
2022/04/17 11:29:50;;;;;;;0.20;0.20;;;;;;;;;;5025426;28;20029;-69
2022/04/17 11:32:19;;;;;;;0.43;0.43;;;;;;;;;;5016443;28;20054;-69
2022/04/17 11:34:55;;;;;;;0.10;0.10;;;;;;;;;;5034951;28;20033;-69
2022/04/17 11:37:21;;;;;;;0.20;0.20;;;;;;;;;;5035689;28;20123;-69
2022/04/17 11:39:57;;;;;;;0.20;0.20;;;;;;;;;;5033100;28;20041;-69
2022/04/17 11:42:28;;;;;;;0.10;0.10;;;;;;;;;;5035422;28;20199;-69
2022/04/17 11:44:55;;;;;;;0.22;0.22;;;;;;;;;;5017534;28;20041;-69
2022/04/17 11:47:23;;;;;;;0.20;0.20;;;;;;;;;;5033753;28;20042;-68
2022/04/17 11:49:49;;;;;;;0.10;0.10;;;;;;;;;;5018865;28;20038;-69
2022/04/17 11:52:17;;;;;;;0.13;0.13;;;;;;;;;;5014829;28;20050;-72
2022/04/17 11:54:44;;;;;;;0.10;0.10;;;;;;;;;;5003516;28;20520;-73
2022/04/17 11:57:11;;;;;;;0.20;0.20;;;;;;;;;;5014786;28;20049;-73
2022/04/17 11:59:50;;;;;;;0.10;0.10;;;;;;;;;;5005383;28;20048;-73
2022/04/17 12:02:18;;;;;;;0.20;0.20;;;;;;;;;;5013624;28;20068;-71
2022/04/17 12:04:47;;;;;;;0.13;0.13;;;;;;;;;;5013533;28;20092;-71
2022/04/17 12:07:23;;;;;;;0.40;0.40;;;;;;;;;;5012233;28;20492;-77
2022/04/17 12:09:50;;;;;;;2.75;0.52;;;;;;;;;;5015378;28;20516;-73
2022/04/17 12:12:19;;;;;;;0.70;0.70;;;;;;;;;;5016196;28;20394;-71
2022/04/17 12:14:47;;;;;;;0.15;0.15;;;;;;;;;;5014870;28;20063;-70
2022/04/17 12:17:14;;;;;;;0.43;0.43;;;;;;;;;;5016065;28;20112;-70
2022/04/17 12:19:52;;;;;;;0.30;0.30;;;;;;;;;;5015733;28;20041;-70
2022/04/17 12:22:18;;;;;;;0.63;0.32;;;;;;;;;;5018180;28;20045;-69
2022/04/17 12:24:45;;;;;;;0.10;0.10;;;;;;;;;;4995250;28;20065;-70
2022/04/17 12:27:24;;;;;;;0.50;0.50;;;;;;;;;;4993405;28;20046;-71
2022/04/17 12:29:52;;;;;;;0.20;0.20;;;;;;;;;;4994824;28;20089;-71
2022/04/17 12:32:21;;;;;;;0.10;0.10;;;;;;;;;;4999526;28;20122;-71
2022/04/17 12:34:59;;;;;;;0.30;0.30;;;;;;;;;;5024719;28;20144;-71
2022/04/17 12:37:28;;;;;;;0.88;0.88;;;;;;;;;;5014483;28;20038;-68
2022/04/17 12:40:06;;;;;;;0.20;0.20;;;;;;;;;;5015155;28;20092;-68
2022/04/17 12:42:33;;;;;;;0.30;0.30;;;;;;;;;;5002440;28;20050;-68
2022/04/17 12:45:00;;;;;;;0.20;0.20;;;;;;;;;;4997946;28;20048;-68
2022/04/17 12:47:27;;;;;;;0.30;0.30;;;;;;;;;;5011445;28;20046;-67
2022/04/17 12:50:01;;;;;;;0.20;0.20;;;;;;;;;;5016376;28;20541;-68
2022/04/17 12:52:28;;;;;;;0.20;0.20;;;;;;;;;;5009503;28;20046;-68
2022/04/17 12:54:56;;;;;;;0.20;0.20;;;;;;;;;;4994305;28;20477;-68
2022/04/17 12:57:23;;;;;;;0.65;0.35;;;;;;;;;;5013319;28;20509;-68
2022/04/17 12:59:53;;;;;;;0.43;0.30;;;;;;;;;;5013933;28;20038;-68
2022/04/17 13:02:20;;;;;;;0.10;0.10;;;;;;;;;;4997367;28;20129;-68
2022/04/17 13:04:47;;;;;;;0.10;0.10;;;;;;;;;;5004762;28;20048;-68
2022/04/17 13:07:15;;;;;;;0.20;0.20;;;;;;;;;;4994102;28;20422;-69
2022/04/17 13:09:52;;;;;;;0.10;0.10;;;;;;;;;;5009630;28;20041;-69
2022/04/17 13:12:39;;;;;;;0.20;0.20;;;;;;;;;;5010358;28;20050;-69
2022/04/17 13:15:07;;;;;;;0.30;0.30;;;;;;;;;;5011065;28;20046;-68
2022/04/17 13:17:46;;;;;;;0.10;0.10;;;;;;;;;;5014398;28;20052;-69
2022/04/17 13:20:13;;;;;;;0.30;0.30;;;;;;;;;;5013166;28;20057;-68
2022/04/17 13:22:39;;;;;;;0.20;0.20;;;;;;;;;;5011261;28;20080;-68
2022/04/17 13:25:10;;;;;;;0.20;0.20;;;;;;;;;;5016754;28;20037;-69
2022/04/17 13:27:37;;;;;;;0.10;0.10;;;;;;;;;;5015939;28;20076;-69
2022/04/17 13:30:07;;;;;;;0.30;0.30;;;;;;;;;;5016138;28;20244;-69
2022/04/17 13:32:34;;;;;;;0.20;0.20;;;;;;;;;;5015530;28;20061;-68
2022/04/17 13:35:02;;;;;;;0.20;0.20;;;;;;;;;;5021235;28;20081;-68
2022/04/17 13:40:14;;;;;;;0.10;0.10;;;;;;;;;;5006219;28;20578;-68
2022/04/17 13:42:41;;;;;;;0.10;0.10;;;;;;;;;;5016477;28;20060;-68
2022/04/17 13:45:07;;;;;;;0.10;0.10;;;;;;;;;;5015965;28;20038;-68
2022/04/17 13:47:34;;;;;;;0.15;0.15;;;;;;;;;;5015511;28;20041;-68
2022/04/17 13:50:00;;;;;;;0.10;0.10;;;;;;;;;;5019478;28;20501;-68
2022/04/17 13:52:28;;;;;;;0.63;0.50;;;;;;;;;;5015819;28;20104;-69
2022/04/17 13:54:56;;;;;;;0.20;0.20;;;;;;;;;;5004439;28;20116;-69
2022/04/17 13:57:22;;;;;;;0.50;0.50;;;;;;;;;;5005416;28;20042;-69
2022/04/17 13:59:49;;;;;;;0.20;0.20;;;;;;;;;;5014898;28;20169;-68
2022/04/17 14:02:15;;;;;;;0.20;0.20;;;;;;;;;;5008359;28;20057;-68
2022/04/17 14:04:42;;;;;;;0.10;0.10;;;;;;;;;;5011962;28;20038;-69
2022/04/17 14:07:09;;;;;;;0.10;0.10;;;;;;;;;;5015992;28;20516;-69
2022/04/17 14:09:40;;;;;;;0.28;0.28;;;;;;;;;;5014893;28;20048;-69
2022/04/17 14:12:09;;;;;;;0.20;0.20;;;;;;;;;;5015336;28;20071;-68
2022/04/17 14:14:37;;;;;;;1.00;0.32;;;;;;;;;;5010172;28;20060;-69
2022/04/17 14:17:03;;;;;;;0.20;0.20;;;;;;;;;;4994340;28;20065;-68
2022/04/17 14:19:30;;;;;;;0.10;0.10;;;;;;;;;;5008500;28;20041;-68
2022/04/17 14:21:56;;;;;;;0.13;0.13;;;;;;;;;;5012083;28;20129;-69
2022/04/17 14:24:23;;;;;;;0.10;0.10;;;;;;;;;;5008667;28;20042;-68
2022/04/17 14:26:49;;;;;;;0.28;0.20;;;;;;;;;;4994683;28;20064;-68
2022/04/17 14:29:16;;;;;;;0.20;0.20;;;;;;;;;;5011202;28;20056;-68
2022/04/17 14:31:42;;;;;;;0.20;0.20;;;;;;;;;;5012221;28;20038;-69
2022/04/17 14:34:09;;;;;;;0.50;0.50;;;;;;;;;;5015271;28;20141;-68
2022/04/17 14:36:36;;;;;;;0.10;0.10;;;;;;;;;;5013604;28;20045;-68
2022/04/17 14:39:03;;;;;;;0.20;0.20;;;;;;;;;;5013796;28;20513;-68
2022/04/17 14:41:29;;;;;;;0.20;0.20;;;;;;;;;;5023992;28;20124;-68
2022/04/17 14:43:55;;;;;;;0.13;0.13;;;;;;;;;;5002380;28;20069;-68
2022/04/17 14:46:22;;;;;;;0.17;0.17;;;;;;;;;;5014123;28;20521;-68
2022/04/17 14:48:48;;;;;;;0.30;0.30;;;;;;;;;;5009436;28;20038;-68
2022/04/17 14:51:15;;;;;;;0.80;0.30;;;;;;;;;;5013886;28;20085;-68
2022/04/17 14:53:42;;;;;;;0.38;0.38;;;;;;;;;;5002823;28;20056;-69
2022/04/17 14:56:09;;;;;;;0.20;0.20;;;;;;;;;;5013344;28;20200;-69
2022/04/17 14:58:36;;;;;;;0.10;0.10;;;;;;;;;;5012103;28;20056;-69
2022/04/17 15:01:03;;;;;;;0.17;0.17;;;;;;;;;;5013672;28;20030;-69
2022/04/17 15:03:32;;;;;;;0.20;0.20;;;;;;;;;;5013518;28;20511;-69
2022/04/17 15:05:59;;;;;;;0.20;0.20;;;;;;;;;;5016277;28;20034;-69